»·PEaware :: N132KT KFLG-F70

N132KT :: KFLG-F70

FLIGHT INFORMATION

Flight Status: Arrived
Operator: Privately registered:
United States
More flights under this callsign
Pilot: Keith S. (1)
Aircraft: MITSUBISHI MU-2 MARQUISE
(MU2)
More flights by this aircraft type
Origin: KFLG Flagstaff Pulliam
United States
Destination: F70 French Valley
United States
More flights between these airports :: More routes between these airports
Route: CHILY V12 EED V208 TNP V514 TRM V64 HEMET
File this flight plan on PilotEdge
Remarks:
Altitude:
(Current/Filed)
16,500ft
Speed:
(Current/Filed)
300kts
Departed: 22-Mar-19 05:09 AM
Arrived: 22-Mar-19 06:17 AM
Distance/Time
Traveled:
286nm/1:08
Distance/Time
To Go:
Arrived

Flight Plot

Page will automatically refresh every two minutes.

Flight plan parsing failed; only flown route is shown


Map Options




Map Legend


Flown Route
Filed Route
Departure Airport
Arrival Airport
Navaid (VOR, NDB)
Fix

Horizontal Profiles

Position Reports

Time Latitude Longitude Heading Altitude Ground
Speed
22-Mar-19 05:03 35.139050 -111.677564 11 7015ft 0kts
22-Mar-19 05:04 35.139072 -111.677559 11 7015ft 4kts
22-Mar-19 05:05 35.137704 -111.674279 148 7015ft 17kts
22-Mar-19 05:06 35.133242 -111.678571 222 7015ft 16kts
22-Mar-19 05:07 35.131619 -111.678526 42 7015ft 13kts
22-Mar-19 05:08 35.155616 -111.652273 41 7273ft 191kts
22-Mar-19 05:09 35.161793 -111.597685 163 9043ft 207kts
22-Mar-19 05:10 35.130699 -111.642661 254 10927ft 199kts
22-Mar-19 05:11 35.114090 -111.708850 253 12663ft 213kts
22-Mar-19 05:12 35.095561 -111.780893 253 14172ft 227kts
22-Mar-19 05:13 35.076430 -111.855029 253 15777ft 231kts
22-Mar-19 05:14 35.056871 -111.930580 253 17401ft 233kts
22-Mar-19 05:15 35.037137 -112.006593 254 19008ft 235kts
22-Mar-19 05:16 35.013037 -112.080511 247 20571ft 236kts
22-Mar-19 05:17 34.983750 -112.152619 245 21971ft 245kts
22-Mar-19 05:18 34.948700 -112.232408 244 22002ft 277kts
22-Mar-19 05:19 34.911781 -112.316116 245 22007ft 280kts
22-Mar-19 05:20 34.874999 -112.399240 245 22011ft 279kts
22-Mar-19 05:21 34.838064 -112.482506 245 22011ft 278kts
22-Mar-19 05:22 34.801155 -112.565502 245 22010ft 278kts
22-Mar-19 05:23 34.764344 -112.648084 245 22122ft 274kts
22-Mar-19 05:24 34.727482 -112.730581 244 22135ft 277kts
22-Mar-19 05:25 34.716055 -112.820793 271 22135ft 273kts
22-Mar-19 05:26 34.719120 -112.913406 274 22133ft 273kts
22-Mar-19 05:27 34.722433 -113.005692 275 22132ft 273kts
22-Mar-19 05:28 34.725740 -113.098409 275 22126ft 273kts
22-Mar-19 05:29 34.723414 -113.191227 260 22119ft 279kts
22-Mar-19 05:30 34.702833 -113.282617 260 22105ft 280kts
22-Mar-19 05:31 34.682106 -113.374267 260 22105ft 280kts
22-Mar-19 05:32 34.661321 -113.465850 260 22103ft 280kts
22-Mar-19 05:33 34.640486 -113.557298 260 22100ft 280kts
22-Mar-19 05:34 34.619525 -113.648948 260 22102ft 280kts
22-Mar-19 05:35 34.598474 -113.740663 259 22113ft 281kts
22-Mar-19 05:36 34.577357 -113.832317 259 22115ft 281kts
22-Mar-19 05:37 34.556110 -113.924169 259 22115ft 281kts
22-Mar-19 05:38 34.534827 -114.015826 259 22114ft 281kts
22-Mar-19 05:39 34.513419 -114.107727 259 22113ft 281kts
22-Mar-19 05:40 34.492032 -114.199151 259 22113ft 281kts
22-Mar-19 05:41 34.470543 -114.290692 259 22112ft 281kts
22-Mar-19 05:42 34.449075 -114.381815 259 22112ft 281kts
22-Mar-19 05:43 34.427481 -114.473128 259 22111ft 281kts
22-Mar-19 05:44 34.405819 -114.564398 259 22108ft 281kts
22-Mar-19 05:45 34.384546 -114.653703 259 22105ft 281kts
22-Mar-19 05:46 34.362913 -114.744185 259 22110ft 282kts
22-Mar-19 05:47 34.340933 -114.835801 259 22109ft 282kts
22-Mar-19 05:48 34.318896 -114.927338 259 22108ft 282kts
22-Mar-19 05:49 34.296769 -115.018797 259 22106ft 283kts
22-Mar-19 05:50 34.274476 -115.110727 260 22106ft 286kts
22-Mar-19 05:51 34.251857 -115.203669 260 22106ft 290kts
22-Mar-19 05:52 34.228841 -115.297930 260 22135ft 292kts
22-Mar-19 05:53 34.205678 -115.392398 260 22167ft 293kts
22-Mar-19 05:54 34.182374 -115.487082 260 22188ft 293kts
22-Mar-19 05:55 34.158993 -115.581750 260 22187ft 294kts
22-Mar-19 05:56 34.136480 -115.672552 260 22192ft 294kts
22-Mar-19 05:57 34.108023 -115.765903 236 22198ft 311kts
22-Mar-19 05:58 34.036679 -115.831171 221 22178ft 324kts
22-Mar-19 05:59 33.961652 -115.891910 221 22144ft 325kts
22-Mar-19 06:00 33.887152 -115.952061 221 22113ft 325kts
22-Mar-19 06:01 33.816954 -116.008619 221 22111ft 324kts
22-Mar-19 06:02 33.741902 -116.068964 221 22112ft 323kts
22-Mar-19 06:03 33.666799 -116.129224 221 22112ft 323kts
22-Mar-19 06:04 33.634520 -116.215152 278 22115ft 283kts
22-Mar-19 06:05 33.641444 -116.309277 281 22114ft 281kts
22-Mar-19 06:06 33.649692 -116.403212 281 22116ft 281kts
22-Mar-19 06:07 33.657863 -116.496745 281 22121ft 281kts
22-Mar-19 06:08 33.665559 -116.588506 281 19803ft 276kts
22-Mar-19 06:09 33.673275 -116.678001 280 17612ft 271kts
22-Mar-19 06:10 33.680815 -116.766485 279 15532ft 267kts
22-Mar-19 06:11 33.688290 -116.854965 278 13519ft 263kts
22-Mar-19 06:12 33.665213 -116.929927 244 10329ft 258kts
22-Mar-19 06:13 33.628889 -117.006491 242 6883ft 273kts
22-Mar-19 06:14 33.604922 -117.079759 259 4031ft 183kts
22-Mar-19 06:15 33.597392 -117.121173 217 2151ft 125kts
22-Mar-19 06:16 33.571457 -117.129195 192 1334ft 35kts
22-Mar-19 06:17 33.570143 -117.130711 283 1334ft 0kts
22-Mar-19 06:18 33.570143 -117.130710 283 1334ft 0kts
22-Mar-19 06:19 33.570143 -117.130710 283 1334ft 0kts

Navigation Log

Ident Type
Flight plan parsing failed, navigation log unavailable